Pagrindinis puslapis
METAR-TAF:

METAR-TAF

Oro uostai :

Rygos oro uostas

Ryga, Latvija

platuma: 56-55N, ilguma: 023-58E, Aukštis: 10 m

Dabartinis oras

Ataskaita buvo paskelbta 23 minutes, ne 18:50 UTC
Vėjas 3 kt iš Šiaurės/Šiaurės Vakarų
Temperatūra 18°C
Drėgmė 77%
Slėgis 1015 hPa
Matomumas 10 km arba daugiau
nėra debesų žemiau 1500 m ir nėra kamuolinių lietaus debesų

METAR: EVRA 141850Z 34003KT CAVOK 18/14 Q1015 NOSIG

Laikas: 22:13 (19:13 UTC)

Prognozė

Ataskaita buvo paskelbta 2 valandos ir 13 minutes, ne 17:00 UTC
Prognozė galioja nuo 14 metu 18 UTC su 15 metu 18 UTC
Vėjas 2 kt nuo kintamojo kryptimis
Matomumas 10 km arba daugiau
Išsisklaidę debesys ne aukštis 4000 ft
Laikinai
nuo 14 metu 20 UTC su 14 metu 23 UTC
Matomumas: 3000 m
Sekli rūkas, rūkana
Laikinai
nuo 14 metu 23 UTC su 15 metu 05 UTC
Matomumas: 0500 m
rūkas
Tikimybė 40% :
Laikinai
nuo 15 metu 00 UTC su 15 metu 05 UTC
Su prošvaistėmis ne aukštis 100 ft

TAF: EVRA 141700Z 1418/1518 VRB02KT 9999 SCT040 TEMPO 1420/1423 3000 MIFG BR TEMPO 1423/1505 0500 FG PROB40 TEMPO 1500/1505 BKN001

Orai ataskaitas ir orų prognozės (METAR, TAF).

turimą stotys yra geltonos ir raudonos taškus žemėlapyje.

Perkelti pele per norėdami pamatyti stoties vardą.

Tada spustelėkite, norėdami matyti oro stebėjimo ir prognozės.

Norėdami pakeisti žemėlapį: spustelėkite ant žalios mygtukų su juodo kryžiaus žemyn,; žalią mygtuką su brūkšneliu, jei norite nutolinti; arba žalių rodyklių gretimoms žemėlapius.


METAR-TAF: